首页
METAR-TAF:

METAR-TAF

机场 :

扎黑丹機場

扎黑丹, 伊朗

纬度: 29-28N, 经度: 060-53E, 海拔: 1370米

当前天气观测

该预报发布于26分钟前的00:00 UTC
风速4节,风向西南
温度 23°C
湿度 31%
气压 1014 hPa
能见度10公里或以上
1500米以下无云,无积雨云

METAR: OIZH 170000Z 22004KT CAVOK 23/05 Q1014 A2994

时间: 04:56 (00:26 UTC)

预报

该预报发布于1小时和26分钟前的23:00 UTC
预报有效从17日的 00点(UTC)到 18日的 06点(UTC)
风速7节,风向东转东南
能見度: 7000
少量云层高于3500英尺
短暂存在
从 17日的 08点(UTC)到 17日的 16点(UTC)
风速12节,风向北转东北

TAF: OIZH 162300Z 1700/1806 12007KT 7000 FEW035 TEMPO 1708/1716 03014KT TRMPO 1718/1724 03012KT

超过4000个机场的气象观测和天气预报(METAR&TAF报告)。

可查询的气象台以黄色和红色小点在地图上表示。

将鼠标移到小点上方,可查看气象台名称。

然后点击查看天气观测和预报。

如需切换地图:点击带黑十字的绿色按钮放大地图;点击带横线的绿色按钮缩小地图;或者点击绿色箭头查看邻近地区的地图。


METAR-TAF: